sensor_id;sensor_type;location;lat;lon;timestamp;pressure;altitude;pressure_sealevel;temperature;humidity
38267;BME280;24063;51.794;19.578;2023-02-02T00:00:33;97297.08;;;0.71;100.00
38267;BME280;24063;51.794;19.578;2023-02-02T00:01:57;97296.93;;;0.72;100.00
38267;BME280;24063;51.794;19.578;2023-02-02T00:02:59;97293.14;;;0.72;100.00
38267;BME280;24063;51.794;19.578;2023-02-02T00:04:02;97291.67;;;0.73;100.00
38267;BME280;24063;51.794;19.578;2023-02-02T00:05:05;97292.67;;;0.72;100.00
38267;BME280;24063;51.794;19.578;2023-02-02T00:06:07;97300.23;;;0.72;100.00
38267;BME280;24063;51.794;19.578;2023-02-02T00:07:09;97297.65;;;0.71;100.00
38267;BME280;24063;51.794;19.578;2023-02-02T00:08:11;97296.37;;;0.70;100.00
38267;BME280;24063;51.794;19.578;2023-02-02T00:09:16;97300.14;;;0.70;100.00
38267;BME280;24063;51.794;19.578;2023-02-02T00:10:18;97297.63;;;0.70;100.00
38267;BME280;24063;51.794;19.578;2023-02-02T00:11:20;97298.70;;;0.70;100.00
38267;BME280;24063;51.794;19.578;2023-02-02T00:12:22;97295.90;;;0.71;100.00
38267;BME280;24063;51.794;19.578;2023-02-02T00:13:23;97299.88;;;0.71;100.00
38267;BME280;24063;51.794;19.578;2023-02-02T00:14:26;97298.09;;;0.72;100.00
38267;BME280;24063;51.794;19.578;2023-02-02T00:15:28;97300.52;;;0.71;100.00
38267;BME280;24063;51.794;19.578;2023-02-02T00:17:31;97296.27;;;0.72;100.00
38267;BME280;24063;51.794;19.578;2023-02-02T00:18:33;97297.00;;;0.73;100.00
38267;BME280;24063;51.794;19.578;2023-02-02T00:19:35;97291.91;;;0.70;100.00
38267;BME280;24063;51.794;19.578;2023-02-02T00:20:37;97297.95;;;0.69;100.00
38267;BME280;24063;51.794;19.578;2023-02-02T00:21:40;97298.94;;;0.67;100.00
38267;BME280;24063;51.794;19.578;2023-02-02T00:22:42;97300.16;;;0.64;100.00
38267;BME280;24063;51.794;19.578;2023-02-02T00:23:44;97303.75;;;0.60;100.00
38267;BME280;24063;51.794;19.578;2023-02-02T00:24:45;97299.69;;;0.54;100.00
38267;BME280;24063;51.794;19.578;2023-02-02T00:25:48;97298.76;;;0.49;100.00
38267;BME280;24063;51.794;19.578;2023-02-02T00:26:53;97302.42;;;0.46;100.00
38267;BME280;24063;51.794;19.578;2023-02-02T00:27:56;97303.10;;;0.45;100.00
38267;BME280;24063;51.794;19.578;2023-02-02T00:28:59;97306.05;;;0.43;100.00
38267;BME280;24063;51.794;19.578;2023-02-02T00:30:03;97303.20;;;0.42;100.00
38267;BME280;24063;51.794;19.578;2023-02-02T00:31:06;97303.50;;;0.40;100.00
38267;BME280;24063;51.794;19.578;2023-02-02T00:32:08;97302.82;;;0.37;100.00
38267;BME280;24063;51.794;19.578;2023-02-02T00:33:10;97305.49;;;0.34;100.00
38267;BME280;24063;51.794;19.578;2023-02-02T00:34:13;97305.33;;;0.31;100.00
38267;BME280;24063;51.794;19.578;2023-02-02T00:35:16;97304.57;;;0.30;100.00
38267;BME280;24063;51.794;19.578;2023-02-02T00:36:19;97310.85;;;0.28;100.00
38267;BME280;24063;51.794;19.578;2023-02-02T00:37:21;97311.09;;;0.26;100.00
38267;BME280;24063;51.794;19.578;2023-02-02T00:38:23;97308.01;;;0.26;100.00
38267;BME280;24063;51.794;19.578;2023-02-02T00:39:25;97311.19;;;0.26;100.00
38267;BME280;24063;51.794;19.578;2023-02-02T00:40:27;97309.01;;;0.25;100.00
38267;BME280;24063;51.794;19.578;2023-02-02T00:41:30;97311.08;;;0.25;100.00
38267;BME280;24063;51.794;19.578;2023-02-02T00:42:32;97313.11;;;0.27;100.00
38267;BME280;24063;51.794;19.578;2023-02-02T00:43:35;97313.84;;;0.28;100.00
38267;BME280;24063;51.794;19.578;2023-02-02T00:44:37;97310.65;;;0.28;100.00
38267;BME280;24063;51.794;19.578;2023-02-02T00:45:58;97307.34;;;0.30;100.00
38267;BME280;24063;51.794;19.578;2023-02-02T00:47:00;97306.66;;;0.31;100.00
38267;BME280;24063;51.794;19.578;2023-02-02T00:48:03;97308.02;;;0.32;100.00
38267;BME280;24063;51.794;19.578;2023-02-02T00:49:07;97307.88;;;0.34;100.00
38267;BME280;24063;51.794;19.578;2023-02-02T00:50:12;97308.86;;;0.36;100.00
38267;BME280;24063;51.794;19.578;2023-02-02T00:51:14;97308.97;;;0.39;100.00
38267;BME280;24063;51.794;19.578;2023-02-02T00:52:16;97306.23;;;0.41;100.00
38267;BME280;24063;51.794;19.578;2023-02-02T00:53:18;97309.17;;;0.42;100.00
38267;BME280;24063;51.794;19.578;2023-02-02T00:54:21;97302.91;;;0.44;100.00
38267;BME280;24063;51.794;19.578;2023-02-02T00:55:23;97305.08;;;0.45;100.00
38267;BME280;24063;51.794;19.578;2023-02-02T00:56:26;97306.56;;;0.47;100.00
38267;BME280;24063;51.794;19.578;2023-02-02T00:57:28;97309.25;;;0.50;100.00
38267;BME280;24063;51.794;19.578;2023-02-02T00:58:29;97305.40;;;0.52;100.00
38267;BME280;24063;51.794;19.578;2023-02-02T00:59:32;97307.05;;;0.53;100.00
38267;BME280;24063;51.794;19.578;2023-02-02T01:00:34;97300.48;;;0.54;100.00
38267;BME280;24063;51.794;19.578;2023-02-02T01:01:36;97300.95;;;0.56;100.00
38267;BME280;24063;51.794;19.578;2023-02-02T01:02:38;97305.35;;;0.56;100.00
38267;BME280;24063;51.794;19.578;2023-02-02T01:03:40;97299.52;;;0.56;100.00
38267;BME280;24063;51.794;19.578;2023-02-02T01:04:42;97303.45;;;0.57;100.00
38267;BME280;24063;51.794;19.578;2023-02-02T01:05:44;97302.30;;;0.58;100.00
38267;BME280;24063;51.794;19.578;2023-02-02T01:06:46;97302.63;;;0.59;100.00
38267;BME280;24063;51.794;19.578;2023-02-02T01:07:49;97307.70;;;0.59;100.00
38267;BME280;24063;51.794;19.578;2023-02-02T01:08:51;97302.28;;;0.60;100.00
38267;BME280;24063;51.794;19.578;2023-02-02T01:09:53;97303.45;;;0.60;100.00
38267;BME280;24063;51.794;19.578;2023-02-02T01:10:58;97303.42;;;0.62;100.00
38267;BME280;24063;51.794;19.578;2023-02-02T01:11:59;97302.90;;;0.63;100.00
38267;BME280;24063;51.794;19.578;2023-02-02T01:13:02;97303.84;;;0.65;100.00
38267;BME280;24063;51.794;19.578;2023-02-02T01:14:05;97308.21;;;0.66;100.00
38267;BME280;24063;51.794;19.578;2023-02-02T01:15:10;97299.95;;;0.68;100.00
38267;BME280;24063;51.794;19.578;2023-02-02T01:16:12;97301.09;;;0.68;100.00
38267;BME280;24063;51.794;19.578;2023-02-02T01:17:14;97303.17;;;0.70;100.00
38267;BME280;24063;51.794;19.578;2023-02-02T01:18:16;97300.46;;;0.70;100.00
38267;BME280;24063;51.794;19.578;2023-02-02T01:19:18;97298.77;;;0.71;100.00
38267;BME280;24063;51.794;19.578;2023-02-02T01:20:20;97304.30;;;0.71;100.00
38267;BME280;24063;51.794;19.578;2023-02-02T01:21:22;97302.73;;;0.72;100.00
38267;BME280;24063;51.794;19.578;2023-02-02T01:22:25;97302.17;;;0.74;100.00
38267;BME280;24063;51.794;19.578;2023-02-02T01:23:28;97304.09;;;0.74;100.00
38267;BME280;24063;51.794;19.578;2023-02-02T01:24:30;97299.40;;;0.75;100.00
38267;BME280;24063;51.794;19.578;2023-02-02T01:25:32;97302.80;;;0.77;100.00
38267;BME280;24063;51.794;19.578;2023-02-02T01:26:39;97301.32;;;0.79;100.00
38267;BME280;24063;51.794;19.578;2023-02-02T01:27:41;97301.70;;;0.79;100.00
38267;BME280;24063;51.794;19.578;2023-02-02T01:28:44;97297.53;;;0.81;100.00
38267;BME280;24063;51.794;19.578;2023-02-02T01:29:47;97303.88;;;0.82;100.00
38267;BME280;24063;51.794;19.578;2023-02-02T01:30:49;97303.58;;;0.83;100.00
38267;BME280;24063;51.794;19.578;2023-02-02T01:31:53;97301.73;;;0.85;100.00
38267;BME280;24063;51.794;19.578;2023-02-02T01:32:55;97303.08;;;0.85;100.00
38267;BME280;24063;51.794;19.578;2023-02-02T01:33:57;97301.06;;;0.86;100.00
38267;BME280;24063;51.794;19.578;2023-02-02T01:34:59;97299.34;;;0.85;100.00
38267;BME280;24063;51.794;19.578;2023-02-02T01:36:05;97300.77;;;0.85;100.00
38267;BME280;24063;51.794;19.578;2023-02-02T01:37:08;97305.04;;;0.85;100.00
38267;BME280;24063;51.794;19.578;2023-02-02T01:38:10;97309.21;;;0.87;100.00
38267;BME280;24063;51.794;19.578;2023-02-02T01:39:12;97310.91;;;0.87;100.00
38267;BME280;24063;51.794;19.578;2023-02-02T01:40:14;97310.16;;;0.86;100.00
38267;BME280;24063;51.794;19.578;2023-02-02T01:41:20;97305.34;;;0.87;100.00
38267;BME280;24063;51.794;19.578;2023-02-02T01:42:22;97306.35;;;0.88;100.00
38267;BME280;24063;51.794;19.578;2023-02-02T01:43:48;97305.97;;;0.90;100.00
38267;BME280;24063;51.794;19.578;2023-02-02T01:45:11;97313.32;;;0.91;100.00
38267;BME280;24063;51.794;19.578;2023-02-02T01:46:23;97309.69;;;0.90;100.00
38267;BME280;24063;51.794;19.578;2023-02-02T01:47:31;97309.73;;;0.90;100.00
38267;BME280;24063;51.794;19.578;2023-02-02T01:48:35;97312.40;;;0.90;100.00
38267;BME280;24063;51.794;19.578;2023-02-02T01:49:39;97309.70;;;0.90;100.00
38267;BME280;24063;51.794;19.578;2023-02-02T01:50:42;97310.06;;;0.90;100.00
38267;BME280;24063;51.794;19.578;2023-02-02T01:51:58;97310.23;;;0.90;100.00
38267;BME280;24063;51.794;19.578;2023-02-02T01:53:04;97312.54;;;0.92;100.00
38267;BME280;24063;51.794;19.578;2023-02-02T01:54:18;97313.06;;;0.91;100.00
38267;BME280;24063;51.794;19.578;2023-02-02T01:55:25;97308.55;;;0.92;100.00
38267;BME280;24063;51.794;19.578;2023-02-02T01:56:39;97315.52;;;0.93;100.00
38267;BME280;24063;51.794;19.578;2023-02-02T01:58:02;97311.77;;;0.94;100.00
38267;BME280;24063;51.794;19.578;2023-02-02T01:59:06;97312.11;;;0.97;100.00
38267;BME280;24063;51.794;19.578;2023-02-02T02:00:12;97313.55;;;0.98;100.00
38267;BME280;24063;51.794;19.578;2023-02-02T02:01:14;97307.73;;;0.98;100.00
38267;BME280;24063;51.794;19.578;2023-02-02T02:02:17;97311.48;;;1.01;100.00
38267;BME280;24063;51.794;19.578;2023-02-02T02:03:24;97314.14;;;1.01;100.00
38267;BME280;24063;51.794;19.578;2023-02-02T02:04:30;97312.44;;;1.01;100.00
38267;BME280;24063;51.794;19.578;2023-02-02T02:05:39;97315.09;;;1.01;100.00
38267;BME280;24063;51.794;19.578;2023-02-02T02:06:43;97316.07;;;1.02;100.00
38267;BME280;24063;51.794;19.578;2023-02-02T02:07:48;97312.95;;;1.02;100.00
38267;BME280;24063;51.794;19.578;2023-02-02T02:08:58;97314.51;;;1.04;100.00
38267;BME280;24063;51.794;19.578;2023-02-02T02:10:02;97314.67;;;1.05;100.00
38267;BME280;24063;51.794;19.578;2023-02-02T02:11:05;97310.62;;;1.05;100.00
38267;BME280;24063;51.794;19.578;2023-02-02T02:12:11;97314.34;;;1.07;100.00
38267;BME280;24063;51.794;19.578;2023-02-02T02:13:16;97319.19;;;1.07;100.00
38267;BME280;24063;51.794;19.578;2023-02-02T02:14:21;97316.55;;;1.09;100.00
38267;BME280;24063;51.794;19.578;2023-02-02T02:15:58;97318.59;;;1.10;100.00
38267;BME280;24063;51.794;19.578;2023-02-02T02:19:14;97308.91;;;1.11;100.00
38267;BME280;24063;51.794;19.578;2023-02-02T02:29:34;97300.58;;;1.18;100.00
38267;BME280;24063;51.794;19.578;2023-02-02T02:32:24;97300.29;;;1.20;100.00
38267;BME280;24063;51.794;19.578;2023-02-02T02:33:41;97294.76;;;1.20;100.00
38267;BME280;24063;51.794;19.578;2023-02-02T02:39:26;97297.17;;;1.21;100.00
38267;BME280;24063;51.794;19.578;2023-02-02T02:40:41;97292.86;;;1.22;100.00
38267;BME280;24063;51.794;19.578;2023-02-02T02:41:58;97291.13;;;1.23;100.00
38267;BME280;24063;51.794;19.578;2023-02-02T02:43:30;97292.20;;;1.24;100.00
38267;BME280;24063;51.794;19.578;2023-02-02T02:44:35;97292.85;;;1.25;100.00
38267;BME280;24063;51.794;19.578;2023-02-02T02:45:38;97298.88;;;1.25;100.00
38267;BME280;24063;51.794;19.578;2023-02-02T02:46:41;97285.72;;;1.25;100.00
38267;BME280;24063;51.794;19.578;2023-02-02T02:47:44;97291.52;;;1.25;100.00
38267;BME280;24063;51.794;19.578;2023-02-02T02:48:47;97293.17;;;1.25;100.00
38267;BME280;24063;51.794;19.578;2023-02-02T02:49:52;97290.73;;;1.26;100.00
38267;BME280;24063;51.794;19.578;2023-02-02T02:51:07;97290.05;;;1.26;100.00
38267;BME280;24063;51.794;19.578;2023-02-02T02:52:10;97289.29;;;1.25;100.00
38267;BME280;24063;51.794;19.578;2023-02-02T02:53:20;97292.25;;;1.24;100.00
38267;BME280;24063;51.794;19.578;2023-02-02T02:54:28;97287.73;;;1.25;100.00
38267;BME280;24063;51.794;19.578;2023-02-02T02:58:09;97285.48;;;1.27;100.00
38267;BME280;24063;51.794;19.578;2023-02-02T03:00:45;97289.21;;;1.27;100.00
38267;BME280;24063;51.794;19.578;2023-02-02T03:03:52;97286.44;;;1.27;100.00
38267;BME280;24063;51.794;19.578;2023-02-02T03:06:21;97288.79;;;1.28;100.00
38267;BME280;24063;51.794;19.578;2023-02-02T03:07:34;97285.71;;;1.28;100.00
38267;BME280;24063;51.794;19.578;2023-02-02T03:09:48;97283.60;;;1.30;100.00
38267;BME280;24063;51.794;19.578;2023-02-02T03:10:54;97286.42;;;1.31;100.00
38267;BME280;24063;51.794;19.578;2023-02-02T03:11:57;97286.81;;;1.31;100.00
38267;BME280;24063;51.794;19.578;2023-02-02T03:13:00;97283.70;;;1.31;100.00
38267;BME280;24063;51.794;19.578;2023-02-02T03:14:07;97284.52;;;1.31;100.00
38267;BME280;24063;51.794;19.578;2023-02-02T03:15:10;97284.08;;;1.30;100.00
38267;BME280;24063;51.794;19.578;2023-02-02T03:16:14;97287.30;;;1.28;100.00
38267;BME280;24063;51.794;19.578;2023-02-02T03:17:17;97283.84;;;1.28;100.00
38267;BME280;24063;51.794;19.578;2023-02-02T03:18:22;97285.23;;;1.28;100.00
38267;BME280;24063;51.794;19.578;2023-02-02T03:19:26;97283.63;;;1.28;100.00
38267;BME280;24063;51.794;19.578;2023-02-02T03:20:28;97285.92;;;1.28;100.00
38267;BME280;24063;51.794;19.578;2023-02-02T03:21:30;97284.37;;;1.28;100.00
38267;BME280;24063;51.794;19.578;2023-02-02T03:22:33;97289.85;;;1.28;100.00
38267;BME280;24063;51.794;19.578;2023-02-02T03:23:35;97283.47;;;1.28;100.00
38267;BME280;24063;51.794;19.578;2023-02-02T03:24:40;97289.22;;;1.28;100.00
38267;BME280;24063;51.794;19.578;2023-02-02T03:25:42;97286.67;;;1.29;100.00
38267;BME280;24063;51.794;19.578;2023-02-02T03:26:45;97285.39;;;1.28;100.00
38267;BME280;24063;51.794;19.578;2023-02-02T03:27:47;97291.19;;;1.28;100.00
38267;BME280;24063;51.794;19.578;2023-02-02T03:28:50;97295.28;;;1.27;100.00
38267;BME280;24063;51.794;19.578;2023-02-02T03:29:53;97292.83;;;1.26;100.00
38267;BME280;24063;51.794;19.578;2023-02-02T03:30:59;97298.09;;;1.26;100.00
38267;BME280;24063;51.794;19.578;2023-02-02T03:32:02;97294.52;;;1.25;100.00
38267;BME280;24063;51.794;19.578;2023-02-02T03:33:05;97292.65;;;1.25;100.00
38267;BME280;24063;51.794;19.578;2023-02-02T03:34:08;97294.34;;;1.24;100.00
38267;BME280;24063;51.794;19.578;2023-02-02T03:35:10;97296.77;;;1.24;100.00
38267;BME280;24063;51.794;19.578;2023-02-02T03:36:12;97293.52;;;1.23;100.00
38267;BME280;24063;51.794;19.578;2023-02-02T03:37:14;97302.20;;;1.23;100.00
38267;BME280;24063;51.794;19.578;2023-02-02T03:38:17;97289.10;;;1.23;100.00
38267;BME280;24063;51.794;19.578;2023-02-02T03:39:19;97290.60;;;1.23;100.00
38267;BME280;24063;51.794;19.578;2023-02-02T03:40:21;97292.29;;;1.23;100.00
38267;BME280;24063;51.794;19.578;2023-02-02T03:41:23;97288.04;;;1.23;100.00
38267;BME280;24063;51.794;19.578;2023-02-02T03:42:26;97286.85;;;1.22;100.00
38267;BME280;24063;51.794;19.578;2023-02-02T03:43:29;97284.65;;;1.21;100.00
38267;BME280;24063;51.794;19.578;2023-02-02T03:44:31;97286.61;;;1.20;100.00
38267;BME280;24063;51.794;19.578;2023-02-02T03:45:33;97284.67;;;1.18;100.00
38267;BME280;24063;51.794;19.578;2023-02-02T03:46:41;97285.59;;;1.18;100.00
38267;BME280;24063;51.794;19.578;2023-02-02T03:47:43;97286.80;;;1.17;100.00
38267;BME280;24063;51.794;19.578;2023-02-02T03:48:45;97283.48;;;1.17;100.00
38267;BME280;24063;51.794;19.578;2023-02-02T03:49:47;97282.05;;;1.17;100.00
38267;BME280;24063;51.794;19.578;2023-02-02T03:50:48;97281.19;;;1.16;100.00
38267;BME280;24063;51.794;19.578;2023-02-02T03:51:50;97275.60;;;1.17;100.00
38267;BME280;24063;51.794;19.578;2023-02-02T03:52:53;97285.13;;;1.16;100.00
38267;BME280;24063;51.794;19.578;2023-02-02T03:53:55;97282.46;;;1.16;100.00
38267;BME280;24063;51.794;19.578;2023-02-02T03:54:57;97279.69;;;1.15;100.00
38267;BME280;24063;51.794;19.578;2023-02-02T03:55:59;97279.52;;;1.15;100.00
38267;BME280;24063;51.794;19.578;2023-02-02T03:57:01;97279.25;;;1.15;100.00
38267;BME280;24063;51.794;19.578;2023-02-02T03:58:03;97279.99;;;1.14;100.00
38267;BME280;24063;51.794;19.578;2023-02-02T03:59:05;97277.38;;;1.14;100.00
38267;BME280;24063;51.794;19.578;2023-02-02T04:00:08;97279.37;;;1.15;100.00
38267;BME280;24063;51.794;19.578;2023-02-02T04:01:13;97276.80;;;1.14;100.00
38267;BME280;24063;51.794;19.578;2023-02-02T04:02:16;97277.87;;;1.14;100.00
38267;BME280;24063;51.794;19.578;2023-02-02T04:03:18;97278.46;;;1.15;100.00
38267;BME280;24063;51.794;19.578;2023-02-02T04:04:19;97279.95;;;1.16;100.00
38267;BME280;24063;51.794;19.578;2023-02-02T04:05:21;97275.35;;;1.17;100.00
38267;BME280;24063;51.794;19.578;2023-02-02T04:06:25;97275.73;;;1.18;100.00
38267;BME280;24063;51.794;19.578;2023-02-02T04:07:27;97276.67;;;1.16;100.00
38267;BME280;24063;51.794;19.578;2023-02-02T04:08:29;97279.19;;;1.17;100.00
38267;BME280;24063;51.794;19.578;2023-02-02T04:09:32;97276.51;;;1.16;100.00
38267;BME280;24063;51.794;19.578;2023-02-02T04:10:34;97275.48;;;1.15;100.00
38267;BME280;24063;51.794;19.578;2023-02-02T04:11:36;97276.53;;;1.14;100.00
38267;BME280;24063;51.794;19.578;2023-02-02T04:12:39;97275.51;;;1.12;100.00
38267;BME280;24063;51.794;19.578;2023-02-02T04:13:41;97276.45;;;1.12;100.00
38267;BME280;24063;51.794;19.578;2023-02-02T04:14:44;97270.86;;;1.11;100.00
38267;BME280;24063;51.794;19.578;2023-02-02T04:15:46;97270.59;;;1.11;100.00
38267;BME280;24063;51.794;19.578;2023-02-02T04:16:48;97272.65;;;1.10;100.00
38267;BME280;24063;51.794;19.578;2023-02-02T04:17:50;97269.30;;;1.10;100.00
38267;BME280;24063;51.794;19.578;2023-02-02T04:18:52;97264.41;;;1.11;100.00
38267;BME280;24063;51.794;19.578;2023-02-02T04:19:54;97269.78;;;1.10;100.00
38267;BME280;24063;51.794;19.578;2023-02-02T04:21:00;97263.71;;;1.10;100.00
38267;BME280;24063;51.794;19.578;2023-02-02T04:22:02;97261.05;;;1.09;100.00
38267;BME280;24063;51.794;19.578;2023-02-02T04:23:04;97260.20;;;1.10;100.00
38267;BME280;24063;51.794;19.578;2023-02-02T04:24:10;97265.53;;;1.10;100.00
38267;BME280;24063;51.794;19.578;2023-02-02T04:25:12;97261.95;;;1.10;100.00
38267;BME280;24063;51.794;19.578;2023-02-02T04:26:14;97260.84;;;1.10;100.00
38267;BME280;24063;51.794;19.578;2023-02-02T04:27:16;97266.26;;;1.10;100.00
38267;BME280;24063;51.794;19.578;2023-02-02T04:28:18;97264.87;;;1.09;100.00
38267;BME280;24063;51.794;19.578;2023-02-02T04:29:20;97262.20;;;1.08;100.00
38267;BME280;24063;51.794;19.578;2023-02-02T04:30:22;97261.02;;;1.07;100.00
38267;BME280;24063;51.794;19.578;2023-02-02T04:31:24;97257.18;;;1.07;100.00
38267;BME280;24063;51.794;19.578;2023-02-02T04:32:26;97254.45;;;1.06;100.00
38267;BME280;24063;51.794;19.578;2023-02-02T04:33:28;97257.31;;;1.06;100.00
38267;BME280;24063;51.794;19.578;2023-02-02T04:34:30;97251.73;;;1.06;100.00
38267;BME280;24063;51.794;19.578;2023-02-02T04:35:32;97258.29;;;1.06;100.00
38267;BME280;24063;51.794;19.578;2023-02-02T04:36:34;97255.34;;;1.05;100.00
38267;BME280;24063;51.794;19.578;2023-02-02T04:37:36;97258.18;;;1.06;100.00
38267;BME280;24063;51.794;19.578;2023-02-02T04:38:38;97260.84;;;1.06;100.00
38267;BME280;24063;51.794;19.578;2023-02-02T04:39:40;97253.59;;;1.05;100.00
38267;BME280;24063;51.794;19.578;2023-02-02T04:40:44;97253.70;;;1.06;100.00
38267;BME280;24063;51.794;19.578;2023-02-02T04:41:47;97258.90;;;1.05;100.00
38267;BME280;24063;51.794;19.578;2023-02-02T04:42:48;97249.82;;;1.05;100.00
38267;BME280;24063;51.794;19.578;2023-02-02T04:43:50;97254.98;;;1.05;100.00
38267;BME280;24063;51.794;19.578;2023-02-02T04:44:52;97253.80;;;1.05;100.00
38267;BME280;24063;51.794;19.578;2023-02-02T04:45:55;97249.64;;;1.06;100.00
38267;BME280;24063;51.794;19.578;2023-02-02T04:46:58;97245.84;;;1.06;100.00
38267;BME280;24063;51.794;19.578;2023-02-02T04:47:59;97245.73;;;1.06;100.00
38267;BME280;24063;51.794;19.578;2023-02-02T04:49:02;97248.88;;;1.07;100.00
38267;BME280;24063;51.794;19.578;2023-02-02T04:50:04;97251.87;;;1.07;100.00
38267;BME280;24063;51.794;19.578;2023-02-02T04:51:09;97247.34;;;1.06;100.00
38267;BME280;24063;51.794;19.578;2023-02-02T04:52:11;97245.98;;;1.06;100.00
38267;BME280;24063;51.794;19.578;2023-02-02T04:53:13;97247.27;;;1.05;100.00
38267;BME280;24063;51.794;19.578;2023-02-02T04:54:15;97248.13;;;1.03;100.00
38267;BME280;24063;51.794;19.578;2023-02-02T04:55:17;97249.09;;;1.02;100.00
38267;BME280;24063;51.794;19.578;2023-02-02T04:56:19;97251.42;;;1.02;100.00
38267;BME280;24063;51.794;19.578;2023-02-02T04:57:21;97245.09;;;1.02;100.00
38267;BME280;24063;51.794;19.578;2023-02-02T04:58:23;97247.05;;;1.02;100.00
38267;BME280;24063;51.794;19.578;2023-02-02T04:59:28;97245.34;;;1.00;100.00
38267;BME280;24063;51.794;19.578;2023-02-02T05:00:30;97245.41;;;0.98;100.00
38267;BME280;24063;51.794;19.578;2023-02-02T05:01:32;97245.63;;;0.98;100.00
38267;BME280;24063;51.794;19.578;2023-02-02T05:02:34;97244.02;;;0.97;100.00
38267;BME280;24063;51.794;19.578;2023-02-02T05:03:38;97241.28;;;0.96;100.00
38267;BME280;24063;51.794;19.578;2023-02-02T05:04:40;97242.52;;;0.96;100.00
38267;BME280;24063;51.794;19.578;2023-02-02T05:05:41;97241.96;;;0.95;100.00
38267;BME280;24063;51.794;19.578;2023-02-02T05:06:43;97238.34;;;0.94;100.00
38267;BME280;24063;51.794;19.578;2023-02-02T05:07:45;97235.67;;;0.93;100.00
38267;BME280;24063;51.794;19.578;2023-02-02T05:08:47;97243.29;;;0.93;100.00
38267;BME280;24063;51.794;19.578;2023-02-02T05:09:49;97237.70;;;0.94;100.00
38267;BME280;24063;51.794;19.578;2023-02-02T05:10:51;97235.25;;;0.93;100.00
38267;BME280;24063;51.794;19.578;2023-02-02T05:11:53;97234.08;;;0.94;100.00
38267;BME280;24063;51.794;19.578;2023-02-02T05:12:55;97234.50;;;0.94;100.00
38267;BME280;24063;51.794;19.578;2023-02-02T05:13:57;97229.12;;;0.93;100.00
38267;BME280;24063;51.794;19.578;2023-02-02T05:14:59;97229.23;;;0.93;100.00
38267;BME280;24063;51.794;19.578;2023-02-02T05:16:01;97230.63;;;0.94;100.00
38267;BME280;24063;51.794;19.578;2023-02-02T05:17:03;97223.29;;;0.95;100.00
38267;BME280;24063;51.794;19.578;2023-02-02T05:18:05;97224.14;;;0.95;100.00
38267;BME280;24063;51.794;19.578;2023-02-02T05:19:10;97229.11;;;0.97;100.00
38267;BME280;24063;51.794;19.578;2023-02-02T05:20:12;97226.29;;;0.96;100.00
38267;BME280;24063;51.794;19.578;2023-02-02T05:21:14;97223.40;;;0.95;100.00
38267;BME280;24063;51.794;19.578;2023-02-02T05:22:16;97218.82;;;0.94;100.00
38267;BME280;24063;51.794;19.578;2023-02-02T05:23:18;97220.19;;;0.93;100.00
38267;BME280;24063;51.794;19.578;2023-02-02T05:24:20;97221.39;;;0.92;100.00
38267;BME280;24063;51.794;19.578;2023-02-02T05:25:22;97219.95;;;0.91;100.00
38267;BME280;24063;51.794;19.578;2023-02-02T05:26:25;97215.59;;;0.91;100.00
38267;BME280;24063;51.794;19.578;2023-02-02T05:27:27;97216.60;;;0.91;100.00
38267;BME280;24063;51.794;19.578;2023-02-02T05:28:30;97215.84;;;0.90;100.00
38267;BME280;24063;51.794;19.578;2023-02-02T05:29:32;97207.04;;;0.89;100.00
38267;BME280;24063;51.794;19.578;2023-02-02T05:30:34;97215.44;;;0.88;100.00
38267;BME280;24063;51.794;19.578;2023-02-02T05:31:36;97207.97;;;0.87;100.00
38267;BME280;24063;51.794;19.578;2023-02-02T05:32:38;97207.48;;;0.85;100.00
38267;BME280;24063;51.794;19.578;2023-02-02T05:33:40;97205.75;;;0.83;100.00
38267;BME280;24063;51.794;19.578;2023-02-02T05:34:42;97207.42;;;0.81;100.00
38267;BME280;24063;51.794;19.578;2023-02-02T05:35:46;97203.41;;;0.80;100.00
38267;BME280;24063;51.794;19.578;2023-02-02T05:36:48;97206.16;;;0.78;100.00
38267;BME280;24063;51.794;19.578;2023-02-02T05:37:50;97210.77;;;0.77;100.00
38267;BME280;24063;51.794;19.578;2023-02-02T05:38:52;97207.36;;;0.76;100.00
38267;BME280;24063;51.794;19.578;2023-02-02T05:39:54;97207.47;;;0.77;100.00
38267;BME280;24063;51.794;19.578;2023-02-02T05:40:56;97203.54;;;0.77;100.00
38267;BME280;24063;51.794;19.578;2023-02-02T05:41:58;97199.56;;;0.77;100.00
38267;BME280;24063;51.794;19.578;2023-02-02T05:43:00;97201.16;;;0.79;100.00
38267;BME280;24063;51.794;19.578;2023-02-02T05:44:02;97198.51;;;0.78;100.00
38267;BME280;24063;51.794;19.578;2023-02-02T05:45:04;97199.20;;;0.78;100.00
38267;BME280;24063;51.794;19.578;2023-02-02T05:46:07;97204.52;;;0.80;100.00
38267;BME280;24063;51.794;19.578;2023-02-02T05:47:09;97203.20;;;0.80;100.00
38267;BME280;24063;51.794;19.578;2023-02-02T05:48:12;97204.16;;;0.80;100.00
38267;BME280;24063;51.794;19.578;2023-02-02T05:49:17;97200.37;;;0.79;100.00
38267;BME280;24063;51.794;19.578;2023-02-02T05:50:19;97197.39;;;0.79;100.00
38267;BME280;24063;51.794;19.578;2023-02-02T05:51:25;97195.63;;;0.77;100.00
38267;BME280;24063;51.794;19.578;2023-02-02T05:52:32;97193.14;;;0.74;100.00
38267;BME280;24063;51.794;19.578;2023-02-02T05:53:35;97194.62;;;0.69;100.00
38267;BME280;24063;51.794;19.578;2023-02-02T05:54:37;97190.15;;;0.65;100.00
38267;BME280;24063;51.794;19.578;2023-02-02T05:55:39;97191.79;;;0.61;100.00
38267;BME280;24063;51.794;19.578;2023-02-02T05:56:41;97187.60;;;0.58;100.00
38267;BME280;24063;51.794;19.578;2023-02-02T05:57:43;97189.34;;;0.53;100.00
38267;BME280;24063;51.794;19.578;2023-02-02T05:58:45;97187.73;;;0.51;100.00
38267;BME280;24063;51.794;19.578;2023-02-02T05:59:50;97190.95;;;0.50;100.00
38267;BME280;24063;51.794;19.578;2023-02-02T06:00:52;97186.95;;;0.46;100.00